sensor_id;sensor_type;location;lat;lon;timestamp;temperature;humidity
53294;DHT22;39181;53.440;5.644;2022-09-17T00:01:04;13.30;99.90
53294;DHT22;39181;53.440;5.644;2022-09-17T00:03:30;13.30;99.90
53294;DHT22;39181;53.440;5.644;2022-09-17T00:06:08;13.40;99.90
53294;DHT22;39181;53.440;5.644;2022-09-17T00:08:35;13.40;99.90
53294;DHT22;39181;53.440;5.644;2022-09-17T00:11:14;13.30;99.90
53294;DHT22;39181;53.440;5.644;2022-09-17T00:13:41;13.20;99.90
53294;DHT22;39181;53.440;5.644;2022-09-17T00:16:07;13.10;99.90
53294;DHT22;39181;53.440;5.644;2022-09-17T00:18:33;12.90;99.90
53294;DHT22;39181;53.440;5.644;2022-09-17T00:21:01;12.70;99.90
53294;DHT22;39181;53.440;5.644;2022-09-17T00:23:27;12.60;99.90
53294;DHT22;39181;53.440;5.644;2022-09-17T00:25:53;12.50;99.90
53294;DHT22;39181;53.440;5.644;2022-09-17T00:28:18;12.40;99.90
53294;DHT22;39181;53.440;5.644;2022-09-17T00:30:45;12.50;99.90
53294;DHT22;39181;53.440;5.644;2022-09-17T00:33:12;12.50;99.90
53294;DHT22;39181;53.440;5.644;2022-09-17T00:35:38;12.60;99.90
53294;DHT22;39181;53.440;5.644;2022-09-17T00:38:04;12.60;99.90
53294;DHT22;39181;53.440;5.644;2022-09-17T00:40:30;12.70;99.90
53294;DHT22;39181;53.440;5.644;2022-09-17T00:42:55;12.90;99.90
53294;DHT22;39181;53.440;5.644;2022-09-17T00:45:22;12.70;99.90
53294;DHT22;39181;53.440;5.644;2022-09-17T00:47:58;12.50;99.90
53294;DHT22;39181;53.440;5.644;2022-09-17T00:50:39;12.40;99.90
53294;DHT22;39181;53.440;5.644;2022-09-17T00:53:18;12.40;99.90
53294;DHT22;39181;53.440;5.644;2022-09-17T00:55:52;12.40;99.90
53294;DHT22;39181;53.440;5.644;2022-09-17T00:58:20;12.40;99.90
53294;DHT22;39181;53.440;5.644;2022-09-17T01:00:47;12.30;99.90
53294;DHT22;39181;53.440;5.644;2022-09-17T01:03:13;12.30;99.90
53294;DHT22;39181;53.440;5.644;2022-09-17T01:05:41;12.40;99.90
53294;DHT22;39181;53.440;5.644;2022-09-17T01:08:26;12.50;99.90
53294;DHT22;39181;53.440;5.644;2022-09-17T01:16:30;12.70;99.90
53294;DHT22;39181;53.440;5.644;2022-09-17T01:22:06;12.50;99.90
53294;DHT22;39181;53.440;5.644;2022-09-17T01:24:54;12.60;99.90
53294;DHT22;39181;53.440;5.644;2022-09-17T01:30:31;12.70;99.90
53294;DHT22;39181;53.440;5.644;2022-09-17T01:36:13;12.70;99.90
53294;DHT22;39181;53.440;5.644;2022-09-17T01:41:45;12.70;99.90
53294;DHT22;39181;53.440;5.644;2022-09-17T01:44:27;12.70;99.90
53294;DHT22;39181;53.440;5.644;2022-09-17T01:47:00;12.70;99.90
53294;DHT22;39181;53.440;5.644;2022-09-17T01:49:29;12.70;99.90
53294;DHT22;39181;53.440;5.644;2022-09-17T01:51:56;12.70;99.90
53294;DHT22;39181;53.440;5.644;2022-09-17T01:54:29;12.70;99.90
53294;DHT22;39181;53.440;5.644;2022-09-17T01:57:08;12.70;99.90
53294;DHT22;39181;53.440;5.644;2022-09-17T01:59:47;12.90;99.90
53294;DHT22;39181;53.440;5.644;2022-09-17T02:02:20;13.00;99.90
53294;DHT22;39181;53.440;5.644;2022-09-17T02:05:04;12.90;99.90
53294;DHT22;39181;53.440;5.644;2022-09-17T02:07:32;12.90;99.90
53294;DHT22;39181;53.440;5.644;2022-09-17T02:10:04;12.90;99.90
53294;DHT22;39181;53.440;5.644;2022-09-17T02:12:34;12.80;99.90
53294;DHT22;39181;53.440;5.644;2022-09-17T02:15:06;12.80;99.90
53294;DHT22;39181;53.440;5.644;2022-09-17T02:17:43;12.80;99.90
53294;DHT22;39181;53.440;5.644;2022-09-17T02:20:11;12.80;99.90
53294;DHT22;39181;53.440;5.644;2022-09-17T02:22:49;12.80;99.90
53294;DHT22;39181;53.440;5.644;2022-09-17T02:25:27;12.80;99.90
53294;DHT22;39181;53.440;5.644;2022-09-17T02:28:12;12.90;99.90
53294;DHT22;39181;53.440;5.644;2022-09-17T02:30:40;13.00;99.90
53294;DHT22;39181;53.440;5.644;2022-09-17T02:33:08;12.90;99.90
53294;DHT22;39181;53.440;5.644;2022-09-17T02:35:37;12.80;99.90
53294;DHT22;39181;53.440;5.644;2022-09-17T02:38:03;12.70;99.90
53294;DHT22;39181;53.440;5.644;2022-09-17T02:40:38;12.70;99.90
53294;DHT22;39181;53.440;5.644;2022-09-17T02:43:17;12.70;99.90
53294;DHT22;39181;53.440;5.644;2022-09-17T02:49:09;12.90;99.90
53294;DHT22;39181;53.440;5.644;2022-09-17T02:52:03;12.90;99.90
53294;DHT22;39181;53.440;5.644;2022-09-17T02:54:41;13.00;99.90
53294;DHT22;39181;53.440;5.644;2022-09-17T02:57:29;12.90;99.90
53294;DHT22;39181;53.440;5.644;2022-09-17T02:59:59;13.00;99.90
53294;DHT22;39181;53.440;5.644;2022-09-17T03:05:11;12.60;99.90
53294;DHT22;39181;53.440;5.644;2022-09-17T03:07:37;12.60;99.90
53294;DHT22;39181;53.440;5.644;2022-09-17T03:10:03;12.60;99.90
53294;DHT22;39181;53.440;5.644;2022-09-17T03:12:29;12.50;99.90
53294;DHT22;39181;53.440;5.644;2022-09-17T03:14:55;12.50;99.90
53294;DHT22;39181;53.440;5.644;2022-09-17T03:17:21;12.60;99.90
53294;DHT22;39181;53.440;5.644;2022-09-17T03:19:47;12.60;99.90
53294;DHT22;39181;53.440;5.644;2022-09-17T03:22:13;12.80;99.90
53294;DHT22;39181;53.440;5.644;2022-09-17T03:24:38;12.90;99.90
53294;DHT22;39181;53.440;5.644;2022-09-17T03:27:04;12.70;99.90
53294;DHT22;39181;53.440;5.644;2022-09-17T03:29:30;12.40;99.90
53294;DHT22;39181;53.440;5.644;2022-09-17T03:31:55;12.20;99.90
53294;DHT22;39181;53.440;5.644;2022-09-17T03:34:21;12.00;99.90
53294;DHT22;39181;53.440;5.644;2022-09-17T03:36:46;12.00;99.90
53294;DHT22;39181;53.440;5.644;2022-09-17T03:39:12;12.00;99.90
53294;DHT22;39181;53.440;5.644;2022-09-17T03:41:37;12.10;99.90
53294;DHT22;39181;53.440;5.644;2022-09-17T03:44:04;12.20;99.90
53294;DHT22;39181;53.440;5.644;2022-09-17T03:46:30;12.10;99.90
53294;DHT22;39181;53.440;5.644;2022-09-17T03:48:55;12.00;99.90
53294;DHT22;39181;53.440;5.644;2022-09-17T03:51:21;11.80;99.90
53294;DHT22;39181;53.440;5.644;2022-09-17T03:53:46;11.80;99.90
53294;DHT22;39181;53.440;5.644;2022-09-17T03:56:12;11.70;99.90
53294;DHT22;39181;53.440;5.644;2022-09-17T03:58:38;11.70;99.90
53294;DHT22;39181;53.440;5.644;2022-09-17T04:01:04;11.70;99.90
53294;DHT22;39181;53.440;5.644;2022-09-17T04:03:31;11.80;99.90
53294;DHT22;39181;53.440;5.644;2022-09-17T04:05:56;11.90;99.90
53294;DHT22;39181;53.440;5.644;2022-09-17T04:08:22;12.20;99.90
53294;DHT22;39181;53.440;5.644;2022-09-17T04:10:48;12.30;99.90
53294;DHT22;39181;53.440;5.644;2022-09-17T04:13:15;12.30;99.90
53294;DHT22;39181;53.440;5.644;2022-09-17T04:15:41;12.20;99.90
53294;DHT22;39181;53.440;5.644;2022-09-17T04:18:07;12.20;99.90
53294;DHT22;39181;53.440;5.644;2022-09-17T04:20:32;12.30;99.90
53294;DHT22;39181;53.440;5.644;2022-09-17T04:22:58;12.30;99.90
53294;DHT22;39181;53.440;5.644;2022-09-17T04:25:24;12.30;99.90
53294;DHT22;39181;53.440;5.644;2022-09-17T04:27:49;12.30;99.90
53294;DHT22;39181;53.440;5.644;2022-09-17T04:30:15;12.20;99.90
53294;DHT22;39181;53.440;5.644;2022-09-17T04:32:42;12.00;99.90
53294;DHT22;39181;53.440;5.644;2022-09-17T04:35:08;11.70;99.90
53294;DHT22;39181;53.440;5.644;2022-09-17T04:37:34;11.70;99.90
53294;DHT22;39181;53.440;5.644;2022-09-17T04:39:59;11.90;99.90
53294;DHT22;39181;53.440;5.644;2022-09-17T04:42:25;11.80;99.90
53294;DHT22;39181;53.440;5.644;2022-09-17T04:44:51;11.90;99.90
53294;DHT22;39181;53.440;5.644;2022-09-17T04:47:16;11.90;99.90
53294;DHT22;39181;53.440;5.644;2022-09-17T04:49:42;12.10;99.90
53294;DHT22;39181;53.440;5.644;2022-09-17T04:52:07;12.10;99.90
53294;DHT22;39181;53.440;5.644;2022-09-17T04:54:33;12.10;99.90
53294;DHT22;39181;53.440;5.644;2022-09-17T04:56:59;12.10;99.90
53294;DHT22;39181;53.440;5.644;2022-09-17T04:59:25;12.30;99.90
53294;DHT22;39181;53.440;5.644;2022-09-17T05:01:51;12.40;99.90
53294;DHT22;39181;53.440;5.644;2022-09-17T05:04:16;12.30;99.90
53294;DHT22;39181;53.440;5.644;2022-09-17T05:06:42;12.40;99.90
53294;DHT22;39181;53.440;5.644;2022-09-17T05:09:07;12.50;99.90
53294;DHT22;39181;53.440;5.644;2022-09-17T05:11:33;12.40;99.90
53294;DHT22;39181;53.440;5.644;2022-09-17T05:13:59;12.30;99.90
53294;DHT22;39181;53.440;5.644;2022-09-17T05:16:25;12.30;99.90
53294;DHT22;39181;53.440;5.644;2022-09-17T05:18:50;12.20;99.90
53294;DHT22;39181;53.440;5.644;2022-09-17T05:21:17;12.20;99.90
53294;DHT22;39181;53.440;5.644;2022-09-17T05:23:43;12.20;99.90
53294;DHT22;39181;53.440;5.644;2022-09-17T05:26:08;12.30;99.90
53294;DHT22;39181;53.440;5.644;2022-09-17T05:28:34;12.30;99.90
53294;DHT22;39181;53.440;5.644;2022-09-17T05:31:01;12.20;99.90
53294;DHT22;39181;53.440;5.644;2022-09-17T05:33:26;12.20;99.90
53294;DHT22;39181;53.440;5.644;2022-09-17T05:35:52;12.10;99.90
53294;DHT22;39181;53.440;5.644;2022-09-17T05:38:18;12.20;99.90
53294;DHT22;39181;53.440;5.644;2022-09-17T05:40:46;12.10;99.90
53294;DHT22;39181;53.440;5.644;2022-09-17T05:43:13;12.10;99.90
53294;DHT22;39181;53.440;5.644;2022-09-17T05:45:40;12.00;99.90
53294;DHT22;39181;53.440;5.644;2022-09-17T05:48:08;12.00;99.90
53294;DHT22;39181;53.440;5.644;2022-09-17T05:50:35;12.00;99.90
53294;DHT22;39181;53.440;5.644;2022-09-17T05:53:06;12.00;99.90
53294;DHT22;39181;53.440;5.644;2022-09-17T05:55:32;12.10;99.90
53294;DHT22;39181;53.440;5.644;2022-09-17T05:57:59;12.20;99.90
53294;DHT22;39181;53.440;5.644;2022-09-17T06:00:26;12.10;99.90
53294;DHT22;39181;53.440;5.644;2022-09-17T06:02:57;12.10;99.90
53294;DHT22;39181;53.440;5.644;2022-09-17T06:05:23;12.20;99.90
53294;DHT22;39181;53.440;5.644;2022-09-17T06:07:49;12.30;99.90
53294;DHT22;39181;53.440;5.644;2022-09-17T06:10:15;12.40;99.90
53294;DHT22;39181;53.440;5.644;2022-09-17T06:12:41;12.50;99.90
53294;DHT22;39181;53.440;5.644;2022-09-17T06:15:07;12.60;99.90
53294;DHT22;39181;53.440;5.644;2022-09-17T06:17:34;12.70;99.90
53294;DHT22;39181;53.440;5.644;2022-09-17T06:20:00;12.90;99.90
53294;DHT22;39181;53.440;5.644;2022-09-17T06:22:26;12.90;99.90
53294;DHT22;39181;53.440;5.644;2022-09-17T06:24:52;12.80;99.90
53294;DHT22;39181;53.440;5.644;2022-09-17T06:27:17;12.80;99.90
53294;DHT22;39181;53.440;5.644;2022-09-17T06:29:43;12.70;99.90
53294;DHT22;39181;53.440;5.644;2022-09-17T06:32:08;12.80;99.90
53294;DHT22;39181;53.440;5.644;2022-09-17T06:34:39;12.80;99.90
53294;DHT22;39181;53.440;5.644;2022-09-17T06:37:05;12.80;99.90
53294;DHT22;39181;53.440;5.644;2022-09-17T06:39:31;13.00;99.90
53294;DHT22;39181;53.440;5.644;2022-09-17T06:41:57;12.90;99.90
53294;DHT22;39181;53.440;5.644;2022-09-17T06:44:23;13.10;99.90
53294;DHT22;39181;53.440;5.644;2022-09-17T06:46:49;12.90;99.90
53294;DHT22;39181;53.440;5.644;2022-09-17T06:49:15;12.70;99.90
53294;DHT22;39181;53.440;5.644;2022-09-17T06:51:42;12.60;99.90
53294;DHT22;39181;53.440;5.644;2022-09-17T06:54:08;12.50;99.90
53294;DHT22;39181;53.440;5.644;2022-09-17T06:56:34;12.50;99.90
53294;DHT22;39181;53.440;5.644;2022-09-17T06:58:59;12.60;99.90
53294;DHT22;39181;53.440;5.644;2022-09-17T07:01:25;12.60;99.90
53294;DHT22;39181;53.440;5.644;2022-09-17T07:03:51;12.50;99.90
53294;DHT22;39181;53.440;5.644;2022-09-17T07:06:16;12.30;99.90
53294;DHT22;39181;53.440;5.644;2022-09-17T07:08:42;12.30;99.90
53294;DHT22;39181;53.440;5.644;2022-09-17T07:11:08;12.20;99.90
53294;DHT22;39181;53.440;5.644;2022-09-17T07:13:34;12.20;99.90
53294;DHT22;39181;53.440;5.644;2022-09-17T07:16:01;12.20;99.90
53294;DHT22;39181;53.440;5.644;2022-09-17T07:18:27;12.20;99.90
53294;DHT22;39181;53.440;5.644;2022-09-17T07:20:54;12.10;99.90
53294;DHT22;39181;53.440;5.644;2022-09-17T07:23:24;12.00;99.90
53294;DHT22;39181;53.440;5.644;2022-09-17T07:25:54;12.10;99.90
53294;DHT22;39181;53.440;5.644;2022-09-17T07:28:21;12.40;99.90
53294;DHT22;39181;53.440;5.644;2022-09-17T07:30:47;12.80;99.90
53294;DHT22;39181;53.440;5.644;2022-09-17T07:33:14;13.10;99.90
53294;DHT22;39181;53.440;5.644;2022-09-17T07:35:40;13.20;99.90
53294;DHT22;39181;53.440;5.644;2022-09-17T07:38:05;13.20;99.90
53294;DHT22;39181;53.440;5.644;2022-09-17T07:40:31;13.30;99.90
53294;DHT22;39181;53.440;5.644;2022-09-17T07:42:56;13.50;99.90
53294;DHT22;39181;53.440;5.644;2022-09-17T07:45:25;13.60;99.90
53294;DHT22;39181;53.440;5.644;2022-09-17T07:47:51;13.60;99.90
53294;DHT22;39181;53.440;5.644;2022-09-17T07:50:16;13.40;99.90
53294;DHT22;39181;53.440;5.644;2022-09-17T07:52:46;13.40;99.90
53294;DHT22;39181;53.440;5.644;2022-09-17T07:55:12;13.40;99.90
53294;DHT22;39181;53.440;5.644;2022-09-17T07:57:38;13.50;99.90
53294;DHT22;39181;53.440;5.644;2022-09-17T08:00:05;13.60;99.90
53294;DHT22;39181;53.440;5.644;2022-09-17T08:02:30;13.80;99.90
53294;DHT22;39181;53.440;5.644;2022-09-17T08:04:56;13.90;99.90
53294;DHT22;39181;53.440;5.644;2022-09-17T08:07:22;14.00;99.90
53294;DHT22;39181;53.440;5.644;2022-09-17T08:09:47;14.10;99.90
53294;DHT22;39181;53.440;5.644;2022-09-17T08:12:13;14.20;99.90
53294;DHT22;39181;53.440;5.644;2022-09-17T08:14:38;14.40;99.90
53294;DHT22;39181;53.440;5.644;2022-09-17T08:17:06;14.50;99.90
53294;DHT22;39181;53.440;5.644;2022-09-17T08:19:32;14.70;99.90
53294;DHT22;39181;53.440;5.644;2022-09-17T08:21:58;14.70;99.90
53294;DHT22;39181;53.440;5.644;2022-09-17T08:24:23;14.60;99.90
53294;DHT22;39181;53.440;5.644;2022-09-17T08:26:49;14.30;99.90
53294;DHT22;39181;53.440;5.644;2022-09-17T08:29:14;14.10;99.90
53294;DHT22;39181;53.440;5.644;2022-09-17T08:31:40;14.00;99.90
53294;DHT22;39181;53.440;5.644;2022-09-17T08:34:07;13.90;99.90
53294;DHT22;39181;53.440;5.644;2022-09-17T08:36:33;13.70;99.90
53294;DHT22;39181;53.440;5.644;2022-09-17T08:38:59;13.60;99.90
53294;DHT22;39181;53.440;5.644;2022-09-17T08:44:48;13.70;99.90
53294;DHT22;39181;53.440;5.644;2022-09-17T08:47:25;14.00;99.90
53294;DHT22;39181;53.440;5.644;2022-09-17T08:49:56;14.20;99.90
53294;DHT22;39181;53.440;5.644;2022-09-17T08:58:32;13.40;99.90
53294;DHT22;39181;53.440;5.644;2022-09-17T09:01:31;13.30;99.90
53294;DHT22;39181;53.440;5.644;2022-09-17T09:04:14;13.40;99.90
53294;DHT22;39181;53.440;5.644;2022-09-17T09:07:52;13.60;99.90
53294;DHT22;39181;53.440;5.644;2022-09-17T09:10:06;13.60;99.90
53294;DHT22;39181;53.440;5.644;2022-09-17T09:12:34;13.80;99.90
53294;DHT22;39181;53.440;5.644;2022-09-17T09:17:48;13.80;99.90
53294;DHT22;39181;53.440;5.644;2022-09-17T09:23:50;13.50;99.90
53294;DHT22;39181;53.440;5.644;2022-09-17T09:26:36;13.30;99.90
53294;DHT22;39181;53.440;5.644;2022-09-17T09:29:12;13.50;99.90
53294;DHT22;39181;53.440;5.644;2022-09-17T09:32:17;13.40;99.90
53294;DHT22;39181;53.440;5.644;2022-09-17T09:34:49;13.60;99.90
53294;DHT22;39181;53.440;5.644;2022-09-17T09:37:25;13.90;99.90
53294;DHT22;39181;53.440;5.644;2022-09-17T09:39:53;14.30;99.90
53294;DHT22;39181;53.440;5.644;2022-09-17T09:42:30;14.50;99.90
53294;DHT22;39181;53.440;5.644;2022-09-17T09:48:11;14.30;99.90
53294;DHT22;39181;53.440;5.644;2022-09-17T09:50:48;14.30;99.90
53294;DHT22;39181;53.440;5.644;2022-09-17T09:56:25;14.70;99.90
53294;DHT22;39181;53.440;5.644;2022-09-17T09:58:52;14.80;99.90
53294;DHT22;39181;53.440;5.644;2022-09-17T10:01:19;15.00;99.90
53294;DHT22;39181;53.440;5.644;2022-09-17T10:03:50;15.10;99.90
53294;DHT22;39181;53.440;5.644;2022-09-17T10:06:17;15.30;99.90
53294;DHT22;39181;53.440;5.644;2022-09-17T10:11:24;15.70;99.90
53294;DHT22;39181;53.440;5.644;2022-09-17T10:13:50;15.70;99.90
53294;DHT22;39181;53.440;5.644;2022-09-17T10:16:20;15.70;99.90
53294;DHT22;39181;53.440;5.644;2022-09-17T10:18:49;15.70;99.90
53294;DHT22;39181;53.440;5.644;2022-09-17T10:21:20;15.80;99.90
53294;DHT22;39181;53.440;5.644;2022-09-17T10:23:46;15.80;99.90
53294;DHT22;39181;53.440;5.644;2022-09-17T10:26:22;15.70;99.90
53294;DHT22;39181;53.440;5.644;2022-09-17T10:28:52;15.70;99.90
53294;DHT22;39181;53.440;5.644;2022-09-17T10:31:18;15.70;99.90
53294;DHT22;39181;53.440;5.644;2022-09-17T10:34:00;15.70;99.90
53294;DHT22;39181;53.440;5.644;2022-09-17T10:36:44;15.90;99.90
53294;DHT22;39181;53.440;5.644;2022-09-17T10:39:29;16.00;99.90
53294;DHT22;39181;53.440;5.644;2022-09-17T10:42:04;16.10;99.90
53294;DHT22;39181;53.440;5.644;2022-09-17T10:44:35;16.30;99.90
53294;DHT22;39181;53.440;5.644;2022-09-17T10:47:13;16.50;99.90
53294;DHT22;39181;53.440;5.644;2022-09-17T10:49:48;16.30;99.90
53294;DHT22;39181;53.440;5.644;2022-09-17T10:52:30;16.00;99.90
53294;DHT22;39181;53.440;5.644;2022-09-17T11:03:23;15.30;99.90
53294;DHT22;39181;53.440;5.644;2022-09-17T11:08:54;15.50;99.90
53294;DHT22;39181;53.440;5.644;2022-09-17T11:16:54;15.40;99.90
53294;DHT22;39181;53.440;5.644;2022-09-17T11:19:24;15.20;99.90
53294;DHT22;39181;53.440;5.644;2022-09-17T11:22:04;15.40;99.90
53294;DHT22;39181;53.440;5.644;2022-09-17T11:27:13;15.90;99.90
53294;DHT22;39181;53.440;5.644;2022-09-17T11:35:26;16.50;99.90
53294;DHT22;39181;53.440;5.644;2022-09-17T11:37:54;16.70;99.90
53294;DHT22;39181;53.440;5.644;2022-09-17T11:40:27;16.80;99.90
53294;DHT22;39181;53.440;5.644;2022-09-17T11:43:01;16.90;99.90
53294;DHT22;39181;53.440;5.644;2022-09-17T11:45:33;16.80;99.90
53294;DHT22;39181;53.440;5.644;2022-09-17T11:48:13;16.90;99.90
53294;DHT22;39181;53.440;5.644;2022-09-17T11:50:45;17.00;99.90
53294;DHT22;39181;53.440;5.644;2022-09-17T12:00:57;17.60;99.90
53294;DHT22;39181;53.440;5.644;2022-09-17T12:03:31;17.40;99.90
53294;DHT22;39181;53.440;5.644;2022-09-17T12:06:05;17.00;99.90
53294;DHT22;39181;53.440;5.644;2022-09-17T12:11:17;16.30;99.90
53294;DHT22;39181;53.440;5.644;2022-09-17T12:13:48;16.40;99.90
53294;DHT22;39181;53.440;5.644;2022-09-17T12:16:24;16.80;99.90
53294;DHT22;39181;53.440;5.644;2022-09-17T12:21:50;17.00;99.90
53294;DHT22;39181;53.440;5.644;2022-09-17T12:24:23;16.90;99.90
53294;DHT22;39181;53.440;5.644;2022-09-17T12:27:14;16.50;99.90
53294;DHT22;39181;53.440;5.644;2022-09-17T12:29:47;16.50;99.90
53294;DHT22;39181;53.440;5.644;2022-09-17T12:32:30;16.40;99.90
53294;DHT22;39181;53.440;5.644;2022-09-17T12:46:34;16.40;99.90
53294;DHT22;39181;53.440;5.644;2022-09-17T12:52:04;15.00;99.90
53294;DHT22;39181;53.440;5.644;2022-09-17T12:59:29;14.50;99.90
53294;DHT22;39181;53.440;5.644;2022-09-17T13:02:26;14.40;99.90
53294;DHT22;39181;53.440;5.644;2022-09-17T13:12:52;15.00;99.90
53294;DHT22;39181;53.440;5.644;2022-09-17T13:18:44;14.80;99.90
53294;DHT22;39181;53.440;5.644;2022-09-17T13:21:19;14.40;99.90
53294;DHT22;39181;53.440;5.644;2022-09-17T13:23:49;14.00;99.90
53294;DHT22;39181;53.440;5.644;2022-09-17T13:26:21;14.00;99.90
53294;DHT22;39181;53.440;5.644;2022-09-17T13:28:57;14.10;99.90
53294;DHT22;39181;53.440;5.644;2022-09-17T13:36:55;13.90;99.90
53294;DHT22;39181;53.440;5.644;2022-09-17T13:39:49;14.00;99.90
53294;DHT22;39181;53.440;5.644;2022-09-17T13:42:28;14.10;99.90
53294;DHT22;39181;53.440;5.644;2022-09-17T13:45:11;14.20;99.90
53294;DHT22;39181;53.440;5.644;2022-09-17T13:47:58;14.50;99.90
53294;DHT22;39181;53.440;5.644;2022-09-17T13:50:27;14.50;99.90
53294;DHT22;39181;53.440;5.644;2022-09-17T13:52:56;14.60;99.90
53294;DHT22;39181;53.440;5.644;2022-09-17T13:55:37;14.60;99.90
53294;DHT22;39181;53.440;5.644;2022-09-17T14:01:03;14.80;99.90
53294;DHT22;39181;53.440;5.644;2022-09-17T14:05:56;14.90;99.90
53294;DHT22;39181;53.440;5.644;2022-09-17T14:08:45;15.00;99.90
53294;DHT22;39181;53.440;5.644;2022-09-17T14:21:59;15.30;99.90
53294;DHT22;39181;53.440;5.644;2022-09-17T14:32:27;15.40;99.90
53294;DHT22;39181;53.440;5.644;2022-09-17T14:35:01;15.50;99.90
53294;DHT22;39181;53.440;5.644;2022-09-17T14:37:28;15.50;99.90
53294;DHT22;39181;53.440;5.644;2022-09-17T14:39:54;15.60;99.90
53294;DHT22;39181;53.440;5.644;2022-09-17T14:42:28;15.50;99.90
53294;DHT22;39181;53.440;5.644;2022-09-17T14:45:01;15.50;99.90
53294;DHT22;39181;53.440;5.644;2022-09-17T14:47:27;15.40;99.90
53294;DHT22;39181;53.440;5.644;2022-09-17T14:49:53;15.50;99.90
53294;DHT22;39181;53.440;5.644;2022-09-17T14:52:31;15.30;99.90
53294;DHT22;39181;53.440;5.644;2022-09-17T14:55:22;15.30;99.90
53294;DHT22;39181;53.440;5.644;2022-09-17T14:57:55;15.10;99.90
53294;DHT22;39181;53.440;5.644;2022-09-17T15:00:27;15.00;99.90
53294;DHT22;39181;53.440;5.644;2022-09-17T15:02:56;15.00;99.90
53294;DHT22;39181;53.440;5.644;2022-09-17T15:05:30;15.10;99.90
53294;DHT22;39181;53.440;5.644;2022-09-17T15:13:15;15.20;99.90
53294;DHT22;39181;53.440;5.644;2022-09-17T15:15:57;15.20;99.90
53294;DHT22;39181;53.440;5.644;2022-09-17T15:18:31;15.20;99.90
53294;DHT22;39181;53.440;5.644;2022-09-17T15:21:00;15.30;99.90
53294;DHT22;39181;53.440;5.644;2022-09-17T15:23:27;15.30;99.90
53294;DHT22;39181;53.440;5.644;2022-09-17T15:25:56;15.10;99.90
53294;DHT22;39181;53.440;5.644;2022-09-17T15:28:39;15.20;99.90
53294;DHT22;39181;53.440;5.644;2022-09-17T15:31:16;15.00;99.90
53294;DHT22;39181;53.440;5.644;2022-09-17T15:33:43;15.10;99.90
53294;DHT22;39181;53.440;5.644;2022-09-17T15:38:44;15.40;99.90
53294;DHT22;39181;53.440;5.644;2022-09-17T15:41:31;15.60;99.90
53294;DHT22;39181;53.440;5.644;2022-09-17T15:44:19;15.60;99.90
53294;DHT22;39181;53.440;5.644;2022-09-17T15:46:45;15.50;99.90
53294;DHT22;39181;53.440;5.644;2022-09-17T15:49:33;15.30;99.90
53294;DHT22;39181;53.440;5.644;2022-09-17T15:52:25;15.10;99.90
53294;DHT22;39181;53.440;5.644;2022-09-17T15:54:52;15.00;99.90
53294;DHT22;39181;53.440;5.644;2022-09-17T15:57:21;14.90;99.90
53294;DHT22;39181;53.440;5.644;2022-09-17T15:59:47;14.80;99.90
53294;DHT22;39181;53.440;5.644;2022-09-17T16:02:28;14.60;99.90
53294;DHT22;39181;53.440;5.644;2022-09-17T16:07:45;14.50;99.90
53294;DHT22;39181;53.440;5.644;2022-09-17T16:10:13;14.20;99.90
53294;DHT22;39181;53.440;5.644;2022-09-17T16:12:39;14.10;99.90
53294;DHT22;39181;53.440;5.644;2022-09-17T16:15:06;13.90;99.90
53294;DHT22;39181;53.440;5.644;2022-09-17T16:17:41;13.80;99.90
53294;DHT22;39181;53.440;5.644;2022-09-17T16:20:16;13.70;99.90
53294;DHT22;39181;53.440;5.644;2022-09-17T16:22:43;13.50;99.90
53294;DHT22;39181;53.440;5.644;2022-09-17T16:25:09;13.40;99.90
53294;DHT22;39181;53.440;5.644;2022-09-17T16:28:02;13.40;99.90
53294;DHT22;39181;53.440;5.644;2022-09-17T16:30:28;13.30;99.90
53294;DHT22;39181;53.440;5.644;2022-09-17T16:32:53;13.20;99.90
53294;DHT22;39181;53.440;5.644;2022-09-17T16:35:22;13.20;99.90
53294;DHT22;39181;53.440;5.644;2022-09-17T16:37:49;13.30;99.90
53294;DHT22;39181;53.440;5.644;2022-09-17T16:40:15;13.40;99.90
53294;DHT22;39181;53.440;5.644;2022-09-17T16:42:41;13.40;99.90
53294;DHT22;39181;53.440;5.644;2022-09-17T16:45:07;13.40;99.90
53294;DHT22;39181;53.440;5.644;2022-09-17T16:47:37;13.20;99.90
53294;DHT22;39181;53.440;5.644;2022-09-17T16:50:09;13.20;99.90
53294;DHT22;39181;53.440;5.644;2022-09-17T16:52:35;13.30;99.90
53294;DHT22;39181;53.440;5.644;2022-09-17T16:55:01;13.20;99.90
53294;DHT22;39181;53.440;5.644;2022-09-17T16:57:27;13.20;99.90
53294;DHT22;39181;53.440;5.644;2022-09-17T16:59:52;13.30;99.90
53294;DHT22;39181;53.440;5.644;2022-09-17T17:02:19;13.30;99.90
53294;DHT22;39181;53.440;5.644;2022-09-17T17:04:44;13.50;99.90
53294;DHT22;39181;53.440;5.644;2022-09-17T17:07:11;13.50;99.90
53294;DHT22;39181;53.440;5.644;2022-09-17T17:09:37;13.40;99.90
53294;DHT22;39181;53.440;5.644;2022-09-17T17:12:03;13.40;99.90
53294;DHT22;39181;53.440;5.644;2022-09-17T17:14:29;13.50;99.90
53294;DHT22;39181;53.440;5.644;2022-09-17T17:16:54;13.50;99.90
53294;DHT22;39181;53.440;5.644;2022-09-17T17:19:20;13.50;99.90
53294;DHT22;39181;53.440;5.644;2022-09-17T17:21:48;13.40;99.90
53294;DHT22;39181;53.440;5.644;2022-09-17T17:24:15;13.50;99.90
53294;DHT22;39181;53.440;5.644;2022-09-17T17:26:40;13.40;99.90
53294;DHT22;39181;53.440;5.644;2022-09-17T17:29:06;13.40;99.90
53294;DHT22;39181;53.440;5.644;2022-09-17T17:31:32;13.40;99.90
53294;DHT22;39181;53.440;5.644;2022-09-17T17:33:58;13.30;99.90
53294;DHT22;39181;53.440;5.644;2022-09-17T17:36:23;13.40;99.90
53294;DHT22;39181;53.440;5.644;2022-09-17T17:38:49;13.30;99.90
53294;DHT22;39181;53.440;5.644;2022-09-17T17:41:14;13.30;99.90
53294;DHT22;39181;53.440;5.644;2022-09-17T17:43:42;13.30;99.90
53294;DHT22;39181;53.440;5.644;2022-09-17T17:46:09;13.30;99.90
53294;DHT22;39181;53.440;5.644;2022-09-17T17:48:35;13.30;99.90
53294;DHT22;39181;53.440;5.644;2022-09-17T17:51:06;13.40;99.90
53294;DHT22;39181;53.440;5.644;2022-09-17T17:53:33;13.30;99.90
53294;DHT22;39181;53.440;5.644;2022-09-17T17:56:03;13.20;99.90
53294;DHT22;39181;53.440;5.644;2022-09-17T17:58:30;13.00;99.90
53294;DHT22;39181;53.440;5.644;2022-09-17T18:00:55;12.70;99.90
53294;DHT22;39181;53.440;5.644;2022-09-17T18:03:21;12.40;99.90
53294;DHT22;39181;53.440;5.644;2022-09-17T18:05:53;12.40;99.90
53294;DHT22;39181;53.440;5.644;2022-09-17T18:08:25;12.50;99.90
53294;DHT22;39181;53.440;5.644;2022-09-17T18:10:55;12.60;99.90
53294;DHT22;39181;53.440;5.644;2022-09-17T18:13:22;12.60;99.90
53294;DHT22;39181;53.440;5.644;2022-09-17T18:15:56;12.50;99.90
53294;DHT22;39181;53.440;5.644;2022-09-17T18:18:24;12.50;99.90
53294;DHT22;39181;53.440;5.644;2022-09-17T18:20:50;12.40;99.90
53294;DHT22;39181;53.440;5.644;2022-09-17T18:23:18;12.40;99.90
53294;DHT22;39181;53.440;5.644;2022-09-17T18:25:54;12.40;99.90